sensor_id;sensor_type;location;lat;lon;timestamp;P1;durP1;ratioP1;P2;durP2;ratioP2
25207;SDS011;13153;52.316;21.166;2023-08-30T00:00:56;22.10;;;16.95;;
25207;SDS011;13153;52.316;21.166;2023-08-30T00:03:22;22.52;;;17.05;;
25207;SDS011;13153;52.316;21.166;2023-08-30T00:05:48;21.08;;;16.60;;
25207;SDS011;13153;52.316;21.166;2023-08-30T00:08:14;19.60;;;16.83;;
25207;SDS011;13153;52.316;21.166;2023-08-30T00:10:43;21.83;;;17.85;;
25207;SDS011;13153;52.316;21.166;2023-08-30T00:13:13;23.08;;;16.35;;
25207;SDS011;13153;52.316;21.166;2023-08-30T00:15:39;21.50;;;18.00;;
25207;SDS011;13153;52.316;21.166;2023-08-30T00:18:06;21.27;;;17.55;;
25207;SDS011;13153;52.316;21.166;2023-08-30T00:20:31;22.08;;;18.42;;
25207;SDS011;13153;52.316;21.166;2023-08-30T00:22:58;24.08;;;18.48;;
25207;SDS011;13153;52.316;21.166;2023-08-30T00:25:24;23.88;;;19.58;;
25207;SDS011;13153;52.316;21.166;2023-08-30T00:27:49;23.77;;;18.50;;
25207;SDS011;13153;52.316;21.166;2023-08-30T00:30:15;23.48;;;18.90;;
25207;SDS011;13153;52.316;21.166;2023-08-30T00:32:41;25.10;;;19.08;;
25207;SDS011;13153;52.316;21.166;2023-08-30T00:35:07;25.55;;;20.08;;
25207;SDS011;13153;52.316;21.166;2023-08-30T00:37:33;24.77;;;20.08;;
25207;SDS011;13153;52.316;21.166;2023-08-30T00:39:58;27.05;;;20.92;;
25207;SDS011;13153;52.316;21.166;2023-08-30T00:42:25;26.80;;;20.60;;
25207;SDS011;13153;52.316;21.166;2023-08-30T00:44:51;30.10;;;20.88;;
25207;SDS011;13153;52.316;21.166;2023-08-30T00:47:16;25.85;;;21.17;;
25207;SDS011;13153;52.316;21.166;2023-08-30T00:49:42;24.55;;;20.70;;
25207;SDS011;13153;52.316;21.166;2023-08-30T00:52:09;27.10;;;21.08;;
25207;SDS011;13153;52.316;21.166;2023-08-30T00:54:35;30.38;;;23.52;;
25207;SDS011;13153;52.316;21.166;2023-08-30T00:57:03;30.33;;;23.10;;
25207;SDS011;13153;52.316;21.166;2023-08-30T00:59:32;30.23;;;23.00;;
25207;SDS011;13153;52.316;21.166;2023-08-30T01:01:58;31.60;;;24.73;;
25207;SDS011;13153;52.316;21.166;2023-08-30T01:04:28;36.70;;;25.38;;
25207;SDS011;13153;52.316;21.166;2023-08-30T01:06:54;35.60;;;25.75;;
25207;SDS011;13153;52.316;21.166;2023-08-30T01:09:20;32.65;;;24.70;;
25207;SDS011;13153;52.316;21.166;2023-08-30T01:11:49;33.90;;;26.27;;
25207;SDS011;13153;52.316;21.166;2023-08-30T01:15:12;34.38;;;24.55;;
25207;SDS011;13153;52.316;21.166;2023-08-30T01:17:44;35.88;;;26.10;;
25207;SDS011;13153;52.316;21.166;2023-08-30T01:20:17;34.33;;;25.25;;
25207;SDS011;13153;52.316;21.166;2023-08-30T01:25:45;32.80;;;22.90;;
25207;SDS011;13153;52.316;21.166;2023-08-30T01:28:46;31.37;;;23.33;;
25207;SDS011;13153;52.316;21.166;2023-08-30T01:31:13;27.02;;;22.45;;
25207;SDS011;13153;52.316;21.166;2023-08-30T01:33:41;29.42;;;21.60;;
25207;SDS011;13153;52.316;21.166;2023-08-30T01:36:08;26.63;;;21.45;;
25207;SDS011;13153;52.316;21.166;2023-08-30T01:38:34;27.08;;;21.90;;
25207;SDS011;13153;52.316;21.166;2023-08-30T01:41:03;25.08;;;20.52;;
25207;SDS011;13153;52.316;21.166;2023-08-30T01:43:29;25.88;;;21.63;;
25207;SDS011;13153;52.316;21.166;2023-08-30T01:45:57;29.20;;;22.63;;
25207;SDS011;13153;52.316;21.166;2023-08-30T01:48:25;31.45;;;22.63;;
25207;SDS011;13153;52.316;21.166;2023-08-30T01:50:52;28.85;;;22.15;;
25207;SDS011;13153;52.316;21.166;2023-08-30T01:53:23;28.77;;;23.17;;
25207;SDS011;13153;52.316;21.166;2023-08-30T01:55:51;30.60;;;22.67;;
25207;SDS011;13153;52.316;21.166;2023-08-30T01:58:17;30.77;;;22.90;;
25207;SDS011;13153;52.316;21.166;2023-08-30T02:00:43;29.77;;;22.70;;
25207;SDS011;13153;52.316;21.166;2023-08-30T02:03:10;31.13;;;23.65;;
25207;SDS011;13153;52.316;21.166;2023-08-30T02:05:39;29.67;;;21.50;;
25207;SDS011;13153;52.316;21.166;2023-08-30T02:08:41;30.30;;;21.08;;
25207;SDS011;13153;52.316;21.166;2023-08-30T02:11:19;28.48;;;21.10;;
25207;SDS011;13153;52.316;21.166;2023-08-30T02:13:51;26.67;;;19.88;;
25207;SDS011;13153;52.316;21.166;2023-08-30T02:16:22;24.02;;;19.17;;
25207;SDS011;13153;52.316;21.166;2023-08-30T02:18:51;25.67;;;20.00;;
25207;SDS011;13153;52.316;21.166;2023-08-30T02:21:18;25.30;;;19.20;;
25207;SDS011;13153;52.316;21.166;2023-08-30T02:23:48;22.80;;;18.38;;
25207;SDS011;13153;52.316;21.166;2023-08-30T02:26:17;24.23;;;18.38;;
25207;SDS011;13153;52.316;21.166;2023-08-30T02:28:44;24.50;;;18.63;;
25207;SDS011;13153;52.316;21.166;2023-08-30T02:31:10;19.67;;;16.05;;
25207;SDS011;13153;52.316;21.166;2023-08-30T02:33:36;22.98;;;17.67;;
25207;SDS011;13153;52.316;21.166;2023-08-30T02:36:05;21.50;;;16.77;;
25207;SDS011;13153;52.316;21.166;2023-08-30T02:38:31;19.83;;;16.60;;
25207;SDS011;13153;52.316;21.166;2023-08-30T02:40:56;21.05;;;16.23;;
25207;SDS011;13153;52.316;21.166;2023-08-30T02:43:22;18.15;;;16.13;;
25207;SDS011;13153;52.316;21.166;2023-08-30T02:45:48;20.33;;;15.75;;
25207;SDS011;13153;52.316;21.166;2023-08-30T02:48:14;20.77;;;16.27;;
25207;SDS011;13153;52.316;21.166;2023-08-30T02:50:40;22.50;;;17.83;;
25207;SDS011;13153;52.316;21.166;2023-08-30T02:53:06;20.83;;;16.70;;
25207;SDS011;13153;52.316;21.166;2023-08-30T02:55:33;18.17;;;15.48;;
25207;SDS011;13153;52.316;21.166;2023-08-30T02:58:00;21.63;;;16.55;;
25207;SDS011;13153;52.316;21.166;2023-08-30T03:00:25;21.40;;;18.13;;
25207;SDS011;13153;52.316;21.166;2023-08-30T03:02:51;31.77;;;21.80;;
25207;SDS011;13153;52.316;21.166;2023-08-30T03:05:17;23.58;;;18.00;;
25207;SDS011;13153;52.316;21.166;2023-08-30T03:07:44;23.13;;;17.45;;
25207;SDS011;13153;52.316;21.166;2023-08-30T03:10:11;21.88;;;17.40;;
25207;SDS011;13153;52.316;21.166;2023-08-30T03:12:37;21.92;;;17.90;;
25207;SDS011;13153;52.316;21.166;2023-08-30T03:15:03;20.25;;;17.05;;
25207;SDS011;13153;52.316;21.166;2023-08-30T03:17:30;22.75;;;17.27;;
25207;SDS011;13153;52.316;21.166;2023-08-30T03:19:56;25.33;;;18.00;;
25207;SDS011;13153;52.316;21.166;2023-08-30T03:22:22;25.67;;;20.70;;
25207;SDS011;13153;52.316;21.166;2023-08-30T03:24:48;29.05;;;22.30;;
25207;SDS011;13153;52.316;21.166;2023-08-30T03:27:15;36.92;;;27.75;;
25207;SDS011;13153;52.316;21.166;2023-08-30T03:29:41;30.20;;;21.88;;
25207;SDS011;13153;52.316;21.166;2023-08-30T03:32:07;25.75;;;19.05;;
25207;SDS011;13153;52.316;21.166;2023-08-30T03:34:33;30.00;;;20.65;;
25207;SDS011;13153;52.316;21.166;2023-08-30T03:36:59;25.27;;;18.52;;
25207;SDS011;13153;52.316;21.166;2023-08-30T03:39:24;23.58;;;18.15;;
25207;SDS011;13153;52.316;21.166;2023-08-30T03:41:50;25.13;;;18.88;;
25207;SDS011;13153;52.316;21.166;2023-08-30T03:44:16;29.92;;;21.92;;
25207;SDS011;13153;52.316;21.166;2023-08-30T03:46:42;25.95;;;20.63;;
25207;SDS011;13153;52.316;21.166;2023-08-30T03:49:07;28.98;;;22.90;;
25207;SDS011;13153;52.316;21.166;2023-08-30T03:51:33;30.58;;;19.67;;
25207;SDS011;13153;52.316;21.166;2023-08-30T03:53:59;25.60;;;18.50;;
25207;SDS011;13153;52.316;21.166;2023-08-30T03:56:25;23.67;;;18.58;;
25207;SDS011;13153;52.316;21.166;2023-08-30T03:58:51;27.50;;;20.42;;
25207;SDS011;13153;52.316;21.166;2023-08-30T04:01:16;29.15;;;21.38;;
25207;SDS011;13153;52.316;21.166;2023-08-30T04:03:42;29.00;;;22.52;;
25207;SDS011;13153;52.316;21.166;2023-08-30T04:06:08;34.33;;;24.27;;
25207;SDS011;13153;52.316;21.166;2023-08-30T04:08:34;30.85;;;21.45;;
25207;SDS011;13153;52.316;21.166;2023-08-30T04:10:59;27.80;;;20.80;;
25207;SDS011;13153;52.316;21.166;2023-08-30T04:13:26;29.02;;;20.75;;
25207;SDS011;13153;52.316;21.166;2023-08-30T04:15:52;44.97;;;31.42;;
25207;SDS011;13153;52.316;21.166;2023-08-30T04:18:18;50.78;;;33.88;;
25207;SDS011;13153;52.316;21.166;2023-08-30T04:20:44;42.28;;;28.92;;
25207;SDS011;13153;52.316;21.166;2023-08-30T04:23:12;33.40;;;23.27;;
25207;SDS011;13153;52.316;21.166;2023-08-30T04:25:38;26.40;;;19.52;;
25207;SDS011;13153;52.316;21.166;2023-08-30T04:28:05;25.40;;;19.13;;
25207;SDS011;13153;52.316;21.166;2023-08-30T04:30:31;27.45;;;18.65;;
25207;SDS011;13153;52.316;21.166;2023-08-30T04:32:58;23.77;;;18.88;;
25207;SDS011;13153;52.316;21.166;2023-08-30T04:35:24;26.52;;;20.38;;
25207;SDS011;13153;52.316;21.166;2023-08-30T04:37:50;24.75;;;18.88;;
25207;SDS011;13153;52.316;21.166;2023-08-30T04:40:15;28.55;;;19.45;;
25207;SDS011;13153;52.316;21.166;2023-08-30T04:42:41;27.15;;;19.30;;
25207;SDS011;13153;52.316;21.166;2023-08-30T04:45:07;28.08;;;20.40;;
25207;SDS011;13153;52.316;21.166;2023-08-30T04:47:34;26.95;;;19.38;;
25207;SDS011;13153;52.316;21.166;2023-08-30T04:50:00;27.15;;;20.70;;
25207;SDS011;13153;52.316;21.166;2023-08-30T04:52:26;29.90;;;20.33;;
25207;SDS011;13153;52.316;21.166;2023-08-30T04:54:52;28.15;;;20.40;;
25207;SDS011;13153;52.316;21.166;2023-08-30T04:57:18;30.20;;;20.95;;
25207;SDS011;13153;52.316;21.166;2023-08-30T04:59:44;26.70;;;19.98;;
25207;SDS011;13153;52.316;21.166;2023-08-30T05:02:11;28.45;;;21.50;;
25207;SDS011;13153;52.316;21.166;2023-08-30T05:04:37;29.58;;;21.52;;
25207;SDS011;13153;52.316;21.166;2023-08-30T05:07:03;30.38;;;21.90;;
25207;SDS011;13153;52.316;21.166;2023-08-30T05:09:30;27.98;;;20.92;;
25207;SDS011;13153;52.316;21.166;2023-08-30T05:11:57;29.05;;;21.10;;
25207;SDS011;13153;52.316;21.166;2023-08-30T05:14:23;29.38;;;20.58;;
25207;SDS011;13153;52.316;21.166;2023-08-30T05:16:49;28.02;;;21.77;;
25207;SDS011;13153;52.316;21.166;2023-08-30T05:19:15;31.08;;;21.48;;
25207;SDS011;13153;52.316;21.166;2023-08-30T05:21:44;29.63;;;21.42;;
25207;SDS011;13153;52.316;21.166;2023-08-30T05:24:10;29.85;;;22.27;;
25207;SDS011;13153;52.316;21.166;2023-08-30T05:26:36;26.65;;;21.23;;
25207;SDS011;13153;52.316;21.166;2023-08-30T05:29:02;25.45;;;20.23;;
25207;SDS011;13153;52.316;21.166;2023-08-30T05:31:29;27.33;;;20.45;;
25207;SDS011;13153;52.316;21.166;2023-08-30T05:33:55;29.15;;;20.55;;
25207;SDS011;13153;52.316;21.166;2023-08-30T05:36:20;28.55;;;20.75;;
25207;SDS011;13153;52.316;21.166;2023-08-30T05:38:46;27.08;;;20.38;;
25207;SDS011;13153;52.316;21.166;2023-08-30T05:41:12;30.98;;;20.92;;
25207;SDS011;13153;52.316;21.166;2023-08-30T05:43:38;28.42;;;20.17;;
25207;SDS011;13153;52.316;21.166;2023-08-30T05:46:04;22.08;;;18.08;;
25207;SDS011;13153;52.316;21.166;2023-08-30T05:48:30;25.20;;;18.90;;
25207;SDS011;13153;52.316;21.166;2023-08-30T05:50:57;25.48;;;19.45;;
25207;SDS011;13153;52.316;21.166;2023-08-30T05:53:23;26.08;;;20.63;;
25207;SDS011;13153;52.316;21.166;2023-08-30T05:55:49;25.08;;;19.38;;
25207;SDS011;13153;52.316;21.166;2023-08-30T05:58:15;22.52;;;17.63;;
25207;SDS011;13153;52.316;21.166;2023-08-30T06:00:42;24.38;;;18.35;;
25207;SDS011;13153;52.316;21.166;2023-08-30T06:03:08;25.55;;;18.98;;
25207;SDS011;13153;52.316;21.166;2023-08-30T06:05:35;24.55;;;18.58;;
25207;SDS011;13153;52.316;21.166;2023-08-30T06:08:01;28.15;;;19.83;;
25207;SDS011;13153;52.316;21.166;2023-08-30T06:10:27;26.98;;;18.33;;
25207;SDS011;13153;52.316;21.166;2023-08-30T06:12:53;26.77;;;19.13;;
25207;SDS011;13153;52.316;21.166;2023-08-30T06:15:19;25.55;;;19.48;;
25207;SDS011;13153;52.316;21.166;2023-08-30T06:17:45;27.50;;;19.23;;
25207;SDS011;13153;52.316;21.166;2023-08-30T06:20:11;27.33;;;19.65;;
25207;SDS011;13153;52.316;21.166;2023-08-30T06:22:38;30.25;;;19.67;;
25207;SDS011;13153;52.316;21.166;2023-08-30T06:25:04;27.30;;;19.38;;
25207;SDS011;13153;52.316;21.166;2023-08-30T06:27:31;25.58;;;18.80;;
25207;SDS011;13153;52.316;21.166;2023-08-30T06:29:57;26.70;;;18.73;;
25207;SDS011;13153;52.316;21.166;2023-08-30T06:32:23;30.98;;;21.13;;
25207;SDS011;13153;52.316;21.166;2023-08-30T06:34:50;27.55;;;20.02;;
25207;SDS011;13153;52.316;21.166;2023-08-30T06:37:15;29.63;;;20.92;;
25207;SDS011;13153;52.316;21.166;2023-08-30T06:39:42;29.52;;;20.30;;
25207;SDS011;13153;52.316;21.166;2023-08-30T06:42:07;28.50;;;21.17;;
25207;SDS011;13153;52.316;21.166;2023-08-30T06:44:33;31.35;;;22.33;;
25207;SDS011;13153;52.316;21.166;2023-08-30T06:46:59;33.17;;;23.50;;
25207;SDS011;13153;52.316;21.166;2023-08-30T06:49:25;31.95;;;22.65;;
25207;SDS011;13153;52.316;21.166;2023-08-30T06:51:51;31.15;;;22.90;;
25207;SDS011;13153;52.316;21.166;2023-08-30T06:54:17;30.30;;;22.58;;
25207;SDS011;13153;52.316;21.166;2023-08-30T06:56:56;33.38;;;22.23;;
25207;SDS011;13153;52.316;21.166;2023-08-30T06:59:23;28.42;;;21.35;;
25207;SDS011;13153;52.316;21.166;2023-08-30T07:01:49;31.58;;;22.33;;
25207;SDS011;13153;52.316;21.166;2023-08-30T07:04:15;32.33;;;22.83;;
25207;SDS011;13153;52.316;21.166;2023-08-30T07:06:40;32.00;;;22.75;;
25207;SDS011;13153;52.316;21.166;2023-08-30T07:09:06;30.65;;;22.17;;
25207;SDS011;13153;52.316;21.166;2023-08-30T07:11:32;34.53;;;24.27;;
25207;SDS011;13153;52.316;21.166;2023-08-30T07:13:59;29.88;;;22.48;;
25207;SDS011;13153;52.316;21.166;2023-08-30T07:16:25;30.73;;;22.95;;
25207;SDS011;13153;52.316;21.166;2023-08-30T07:18:50;34.70;;;24.08;;
25207;SDS011;13153;52.316;21.166;2023-08-30T07:21:16;34.85;;;25.10;;
25207;SDS011;13153;52.316;21.166;2023-08-30T07:23:43;32.70;;;24.55;;
25207;SDS011;13153;52.316;21.166;2023-08-30T07:26:09;34.95;;;26.17;;
25207;SDS011;13153;52.316;21.166;2023-08-30T07:28:35;31.58;;;24.50;;
25207;SDS011;13153;52.316;21.166;2023-08-30T07:31:04;36.45;;;24.52;;
25207;SDS011;13153;52.316;21.166;2023-08-30T07:33:30;32.70;;;23.38;;
25207;SDS011;13153;52.316;21.166;2023-08-30T07:35:56;37.40;;;26.52;;
25207;SDS011;13153;52.316;21.166;2023-08-30T07:38:22;34.50;;;25.38;;
25207;SDS011;13153;52.316;21.166;2023-08-30T07:40:48;32.47;;;24.02;;
25207;SDS011;13153;52.316;21.166;2023-08-30T07:43:13;33.00;;;23.10;;
25207;SDS011;13153;52.316;21.166;2023-08-30T07:45:39;37.33;;;24.55;;
25207;SDS011;13153;52.316;21.166;2023-08-30T07:48:05;33.58;;;23.95;;
25207;SDS011;13153;52.316;21.166;2023-08-30T07:50:31;34.00;;;23.70;;
25207;SDS011;13153;52.316;21.166;2023-08-30T07:52:57;31.02;;;22.67;;
25207;SDS011;13153;52.316;21.166;2023-08-30T07:55:22;27.35;;;20.42;;
25207;SDS011;13153;52.316;21.166;2023-08-30T07:57:49;29.00;;;21.20;;
25207;SDS011;13153;52.316;21.166;2023-08-30T08:00:14;29.48;;;19.88;;
25207;SDS011;13153;52.316;21.166;2023-08-30T08:02:41;28.55;;;19.77;;
25207;SDS011;13153;52.316;21.166;2023-08-30T08:05:06;27.83;;;21.90;;
25207;SDS011;13153;52.316;21.166;2023-08-30T08:07:33;30.92;;;21.73;;
25207;SDS011;13153;52.316;21.166;2023-08-30T08:09:58;27.92;;;20.40;;
25207;SDS011;13153;52.316;21.166;2023-08-30T08:12:25;29.15;;;19.88;;
25207;SDS011;13153;52.316;21.166;2023-08-30T08:14:52;24.48;;;19.45;;
25207;SDS011;13153;52.316;21.166;2023-08-30T08:17:18;25.00;;;19.65;;
25207;SDS011;13153;52.316;21.166;2023-08-30T08:19:44;27.13;;;20.30;;
25207;SDS011;13153;52.316;21.166;2023-08-30T08:22:10;33.30;;;21.95;;
25207;SDS011;13153;52.316;21.166;2023-08-30T08:24:36;27.58;;;19.90;;
25207;SDS011;13153;52.316;21.166;2023-08-30T08:27:02;25.92;;;18.88;;
25207;SDS011;13153;52.316;21.166;2023-08-30T08:29:28;27.75;;;19.77;;
25207;SDS011;13153;52.316;21.166;2023-08-30T08:31:54;26.25;;;19.42;;
25207;SDS011;13153;52.316;21.166;2023-08-30T08:34:20;27.67;;;19.33;;
25207;SDS011;13153;52.316;21.166;2023-08-30T08:36:45;27.83;;;19.52;;
25207;SDS011;13153;52.316;21.166;2023-08-30T08:39:11;26.70;;;19.33;;
25207;SDS011;13153;52.316;21.166;2023-08-30T08:41:40;27.30;;;19.00;;
25207;SDS011;13153;52.316;21.166;2023-08-30T08:44:10;24.48;;;16.30;;
25207;SDS011;13153;52.316;21.166;2023-08-30T08:46:38;23.30;;;16.55;;
25207;SDS011;13153;52.316;21.166;2023-08-30T08:49:09;23.35;;;17.10;;
25207;SDS011;13153;52.316;21.166;2023-08-30T08:51:39;24.25;;;17.23;;
25207;SDS011;13153;52.316;21.166;2023-08-30T08:54:07;23.92;;;17.90;;
25207;SDS011;13153;52.316;21.166;2023-08-30T08:56:34;20.70;;;16.40;;
25207;SDS011;13153;52.316;21.166;2023-08-30T08:59:01;23.50;;;17.40;;
25207;SDS011;13153;52.316;21.166;2023-08-30T09:01:28;21.77;;;16.33;;
25207;SDS011;13153;52.316;21.166;2023-08-30T09:03:54;21.65;;;15.40;;
25207;SDS011;13153;52.316;21.166;2023-08-30T09:06:20;20.25;;;15.52;;
25207;SDS011;13153;52.316;21.166;2023-08-30T09:08:48;20.23;;;15.15;;
25207;SDS011;13153;52.316;21.166;2023-08-30T09:11:14;19.45;;;14.48;;
25207;SDS011;13153;52.316;21.166;2023-08-30T09:13:41;21.35;;;15.52;;
25207;SDS011;13153;52.316;21.166;2023-08-30T09:16:12;20.48;;;15.45;;
25207;SDS011;13153;52.316;21.166;2023-08-30T09:18:40;20.95;;;15.35;;
25207;SDS011;13153;52.316;21.166;2023-08-30T09:21:07;17.40;;;14.88;;
25207;SDS011;13153;52.316;21.166;2023-08-30T09:23:36;19.48;;;15.13;;
25207;SDS011;13153;52.316;21.166;2023-08-30T09:26:03;17.98;;;14.60;;
25207;SDS011;13153;52.316;21.166;2023-08-30T09:28:29;18.30;;;14.48;;
25207;SDS011;13153;52.316;21.166;2023-08-30T09:30:57;17.48;;;14.07;;
25207;SDS011;13153;52.316;21.166;2023-08-30T09:33:31;18.10;;;12.93;;
25207;SDS011;13153;52.316;21.166;2023-08-30T09:35:58;19.13;;;12.30;;
25207;SDS011;13153;52.316;21.166;2023-08-30T09:38:24;19.58;;;13.10;;
25207;SDS011;13153;52.316;21.166;2023-08-30T09:40:51;13.73;;;11.02;;
25207;SDS011;13153;52.316;21.166;2023-08-30T09:43:27;13.15;;;9.77;;
25207;SDS011;13153;52.316;21.166;2023-08-30T09:45:53;12.68;;;9.45;;
25207;SDS011;13153;52.316;21.166;2023-08-30T09:48:22;11.35;;;8.40;;
25207;SDS011;13153;52.316;21.166;2023-08-30T09:50:53;17.10;;;9.00;;
25207;SDS011;13153;52.316;21.166;2023-08-30T09:53:23;15.50;;;8.10;;
25207;SDS011;13153;52.316;21.166;2023-08-30T09:55:54;8.57;;;5.80;;
25207;SDS011;13153;52.316;21.166;2023-08-30T09:58:21;9.43;;;5.82;;
25207;SDS011;13153;52.316;21.166;2023-08-30T10:00:48;7.55;;;5.50;;
25207;SDS011;13153;52.316;21.166;2023-08-30T10:03:15;8.90;;;5.18;;
25207;SDS011;13153;52.316;21.166;2023-08-30T10:05:42;8.32;;;4.45;;
25207;SDS011;13153;52.316;21.166;2023-08-30T10:08:09;5.75;;;4.13;;
25207;SDS011;13153;52.316;21.166;2023-08-30T10:10:39;4.07;;;3.40;;
25207;SDS011;13153;52.316;21.166;2023-08-30T10:13:05;6.72;;;3.30;;
25207;SDS011;13153;52.316;21.166;2023-08-30T10:15:33;5.22;;;3.40;;
25207;SDS011;13153;52.316;21.166;2023-08-30T10:18:05;5.45;;;3.80;;
25207;SDS011;13153;52.316;21.166;2023-08-30T10:20:36;4.55;;;3.05;;
25207;SDS011;13153;52.316;21.166;2023-08-30T10:23:04;4.75;;;3.20;;
25207;SDS011;13153;52.316;21.166;2023-08-30T10:25:30;4.18;;;3.30;;
25207;SDS011;13153;52.316;21.166;2023-08-30T10:27:59;4.07;;;3.10;;
25207;SDS011;13153;52.316;21.166;2023-08-30T10:30:26;5.70;;;3.05;;
25207;SDS011;13153;52.316;21.166;2023-08-30T10:32:52;4.75;;;2.70;;
25207;SDS011;13153;52.316;21.166;2023-08-30T10:35:18;4.05;;;2.65;;
25207;SDS011;13153;52.316;21.166;2023-08-30T10:37:56;2.78;;;2.50;;
25207;SDS011;13153;52.316;21.166;2023-08-30T10:40:24;4.35;;;2.60;;
25207;SDS011;13153;52.316;21.166;2023-08-30T10:43:00;3.17;;;2.40;;
25207;SDS011;13153;52.316;21.166;2023-08-30T10:45:28;2.75;;;2.47;;
25207;SDS011;13153;52.316;21.166;2023-08-30T10:47:55;4.07;;;2.55;;
25207;SDS011;13153;52.316;21.166;2023-08-30T10:50:30;2.20;;;2.00;;
25207;SDS011;13153;52.316;21.166;2023-08-30T10:55:24;2.92;;;2.25;;
25207;SDS011;13153;52.316;21.166;2023-08-30T10:58:01;2.50;;;2.30;;
25207;SDS011;13153;52.316;21.166;2023-08-30T11:00:30;2.95;;;2.30;;
25207;SDS011;13153;52.316;21.166;2023-08-30T11:02:56;3.50;;;2.50;;
25207;SDS011;13153;52.316;21.166;2023-08-30T11:05:23;2.70;;;2.30;;
25207;SDS011;13153;52.316;21.166;2023-08-30T11:07:51;3.08;;;2.30;;
25207;SDS011;13153;52.316;21.166;2023-08-30T11:10:18;3.47;;;2.40;;
25207;SDS011;13153;52.316;21.166;2023-08-30T11:12:45;2.95;;;2.38;;
25207;SDS011;13153;52.316;21.166;2023-08-30T11:15:14;2.60;;;2.40;;
25207;SDS011;13153;52.316;21.166;2023-08-30T11:17:41;4.38;;;2.63;;
25207;SDS011;13153;52.316;21.166;2023-08-30T11:20:08;3.45;;;2.80;;
25207;SDS011;13153;52.316;21.166;2023-08-30T11:22:45;2.83;;;2.60;;
25207;SDS011;13153;52.316;21.166;2023-08-30T11:25:12;3.10;;;2.80;;
25207;SDS011;13153;52.316;21.166;2023-08-30T11:27:41;3.10;;;2.80;;
25207;SDS011;13153;52.316;21.166;2023-08-30T11:30:08;3.63;;;3.00;;
25207;SDS011;13153;52.316;21.166;2023-08-30T11:32:36;4.07;;;3.10;;
25207;SDS011;13153;52.316;21.166;2023-08-30T11:35:08;4.25;;;3.47;;
25207;SDS011;13153;52.316;21.166;2023-08-30T11:37:34;5.00;;;3.38;;
25207;SDS011;13153;52.316;21.166;2023-08-30T11:40:01;4.88;;;3.80;;
25207;SDS011;13153;52.316;21.166;2023-08-30T11:42:31;4.70;;;4.18;;
25207;SDS011;13153;52.316;21.166;2023-08-30T11:44:57;5.63;;;3.80;;
25207;SDS011;13153;52.316;21.166;2023-08-30T11:47:27;5.43;;;3.72;;
25207;SDS011;13153;52.316;21.166;2023-08-30T11:49:56;4.97;;;3.95;;
25207;SDS011;13153;52.316;21.166;2023-08-30T11:52:24;4.68;;;4.25;;
25207;SDS011;13153;52.316;21.166;2023-08-30T11:54:52;6.03;;;3.95;;
25207;SDS011;13153;52.316;21.166;2023-08-30T11:57:20;5.65;;;4.20;;
25207;SDS011;13153;52.316;21.166;2023-08-30T11:59:46;4.55;;;4.03;;
25207;SDS011;13153;52.316;21.166;2023-08-30T12:02:13;6.57;;;4.25;;
25207;SDS011;13153;52.316;21.166;2023-08-30T12:04:41;5.78;;;4.20;;
25207;SDS011;13153;52.316;21.166;2023-08-30T12:07:08;5.38;;;4.22;;
25207;SDS011;13153;52.316;21.166;2023-08-30T12:09:35;5.25;;;4.20;;
25207;SDS011;13153;52.316;21.166;2023-08-30T12:12:19;6.45;;;4.40;;
25207;SDS011;13153;52.316;21.166;2023-08-30T12:14:54;4.47;;;4.07;;
25207;SDS011;13153;52.316;21.166;2023-08-30T12:17:23;6.20;;;4.37;;
25207;SDS011;13153;52.316;21.166;2023-08-30T12:19:56;8.25;;;4.10;;
25207;SDS011;13153;52.316;21.166;2023-08-30T12:22:22;5.10;;;4.38;;
25207;SDS011;13153;52.316;21.166;2023-08-30T12:24:48;5.95;;;4.32;;
25207;SDS011;13153;52.316;21.166;2023-08-30T12:27:14;4.53;;;3.60;;
25207;SDS011;13153;52.316;21.166;2023-08-30T12:29:39;7.30;;;4.57;;
25207;SDS011;13153;52.316;21.166;2023-08-30T12:32:06;7.13;;;4.55;;
25207;SDS011;13153;52.316;21.166;2023-08-30T12:34:33;6.95;;;4.75;;
25207;SDS011;13153;52.316;21.166;2023-08-30T12:36:59;5.50;;;4.40;;
25207;SDS011;13153;52.316;21.166;2023-08-30T12:39:27;4.97;;;4.00;;
25207;SDS011;13153;52.316;21.166;2023-08-30T12:41:52;4.45;;;3.60;;
25207;SDS011;13153;52.316;21.166;2023-08-30T12:44:18;6.63;;;3.80;;
25207;SDS011;13153;52.316;21.166;2023-08-30T12:46:44;5.25;;;3.60;;
25207;SDS011;13153;52.316;21.166;2023-08-30T12:49:10;3.90;;;3.05;;
25207;SDS011;13153;52.316;21.166;2023-08-30T12:51:36;4.95;;;3.13;;
25207;SDS011;13153;52.316;21.166;2023-08-30T12:54:01;3.75;;;3.08;;
25207;SDS011;13153;52.316;21.166;2023-08-30T12:56:28;3.20;;;2.78;;
25207;SDS011;13153;52.316;21.166;2023-08-30T12:58:54;4.15;;;3.10;;
25207;SDS011;13153;52.316;21.166;2023-08-30T13:01:19;3.45;;;3.10;;
25207;SDS011;13153;52.316;21.166;2023-08-30T13:03:45;4.35;;;3.20;;
25207;SDS011;13153;52.316;21.166;2023-08-30T13:06:11;3.50;;;3.15;;
25207;SDS011;13153;52.316;21.166;2023-08-30T13:08:36;3.67;;;3.17;;
25207;SDS011;13153;52.316;21.166;2023-08-30T13:11:02;3.47;;;3.10;;
25207;SDS011;13153;52.316;21.166;2023-08-30T13:13:28;4.57;;;3.22;;
25207;SDS011;13153;52.316;21.166;2023-08-30T13:15:53;4.80;;;3.50;;
25207;SDS011;13153;52.316;21.166;2023-08-30T13:18:19;8.30;;;3.50;;
25207;SDS011;13153;52.316;21.166;2023-08-30T13:20:46;4.65;;;3.60;;
25207;SDS011;13153;52.316;21.166;2023-08-30T13:23:12;5.15;;;3.72;;
25207;SDS011;13153;52.316;21.166;2023-08-30T13:25:38;4.68;;;3.63;;
25207;SDS011;13153;52.316;21.166;2023-08-30T13:28:05;5.47;;;3.67;;
25207;SDS011;13153;52.316;21.166;2023-08-30T13:30:31;4.35;;;3.72;;
25207;SDS011;13153;52.316;21.166;2023-08-30T13:32:56;5.88;;;3.40;;
25207;SDS011;13153;52.316;21.166;2023-08-30T13:35:22;6.82;;;4.05;;
25207;SDS011;13153;52.316;21.166;2023-08-30T13:37:48;3.88;;;3.47;;
25207;SDS011;13153;52.316;21.166;2023-08-30T13:40:15;5.18;;;4.10;;
25207;SDS011;13153;52.316;21.166;2023-08-30T13:42:41;4.28;;;3.85;;
25207;SDS011;13153;52.316;21.166;2023-08-30T13:45:07;5.30;;;4.00;;
25207;SDS011;13153;52.316;21.166;2023-08-30T13:47:34;5.97;;;3.95;;
25207;SDS011;13153;52.316;21.166;2023-08-30T13:50:00;5.63;;;4.55;;
25207;SDS011;13153;52.316;21.166;2023-08-30T13:52:26;6.60;;;5.32;;
25207;SDS011;13153;52.316;21.166;2023-08-30T13:54:54;6.57;;;4.75;;
25207;SDS011;13153;52.316;21.166;2023-08-30T13:57:20;6.00;;;5.00;;
25207;SDS011;13153;52.316;21.166;2023-08-30T13:59:45;6.60;;;5.35;;
25207;SDS011;13153;52.316;21.166;2023-08-30T14:02:11;11.68;;;6.68;;
25207;SDS011;13153;52.316;21.166;2023-08-30T14:04:37;10.85;;;8.63;;
25207;SDS011;13153;52.316;21.166;2023-08-30T14:07:03;11.10;;;8.32;;
25207;SDS011;13153;52.316;21.166;2023-08-30T14:09:29;9.13;;;6.28;;
25207;SDS011;13153;52.316;21.166;2023-08-30T14:11:55;8.45;;;6.32;;
25207;SDS011;13153;52.316;21.166;2023-08-30T14:14:21;9.00;;;6.13;;
25207;SDS011;13153;52.316;21.166;2023-08-30T14:16:47;7.28;;;5.63;;
25207;SDS011;13153;52.316;21.166;2023-08-30T14:19:12;7.20;;;5.55;;
25207;SDS011;13153;52.316;21.166;2023-08-30T14:21:41;6.45;;;5.78;;